Allenwood, New Jersey
Current Conditions -  °F | °C
As of 2:35 PM on Saturday 25 Oct 2014 (Local Time) from KBLM Reporting Station
Clear Clear  
Wind Chill: 66°   Ceiling: Unl
Heat Index: 66°   Visibility: 10mi
Dew Point: 43°   Wind: 15mph
Humidity: 43%   Direction: 250°WSW
Pressure: 29.73"   Gusts: 20mph
Location:  40.14°N, 74.1°W
Report Text: KBLM 251835Z AUTO 25013G17KT 10SM CLR 19/06 A2973 RMK AO1
Loading
Personal Weather Stations






























Interactive Weather Map
Tropical Storm Tracking
New forecast layout! Learn more

10-Day Weather Forecast

Advertisements
Track Severe Weather on mobile